sensor_id;sensor_type;location;lat;lon;timestamp;temperature;humidity
55121;DHT22;41019;48.512;9.036;2024-01-06T00:02:10;6.50;99.90
55121;DHT22;41019;48.512;9.036;2024-01-06T00:04:36;6.50;99.90
55121;DHT22;41019;48.512;9.036;2024-01-06T00:07:02;6.50;99.90
55121;DHT22;41019;48.512;9.036;2024-01-06T00:09:27;6.50;99.90
55121;DHT22;41019;48.512;9.036;2024-01-06T00:11:53;6.50;99.90
55121;DHT22;41019;48.512;9.036;2024-01-06T00:14:19;6.40;99.90
55121;DHT22;41019;48.512;9.036;2024-01-06T00:16:44;6.40;99.90
55121;DHT22;41019;48.512;9.036;2024-01-06T00:19:11;6.40;99.90
55121;DHT22;41019;48.512;9.036;2024-01-06T00:21:37;6.40;99.90
55121;DHT22;41019;48.512;9.036;2024-01-06T00:24:02;6.40;99.90
55121;DHT22;41019;48.512;9.036;2024-01-06T00:26:28;6.40;99.90
55121;DHT22;41019;48.512;9.036;2024-01-06T00:28:54;6.40;99.90
55121;DHT22;41019;48.512;9.036;2024-01-06T00:31:20;6.40;99.90
55121;DHT22;41019;48.512;9.036;2024-01-06T00:33:46;6.40;99.90
55121;DHT22;41019;48.512;9.036;2024-01-06T00:36:12;6.40;99.90
55121;DHT22;41019;48.512;9.036;2024-01-06T00:38:38;6.40;99.90
55121;DHT22;41019;48.512;9.036;2024-01-06T00:41:04;6.40;99.90
55121;DHT22;41019;48.512;9.036;2024-01-06T00:43:30;6.40;99.90
55121;DHT22;41019;48.512;9.036;2024-01-06T00:45:55;6.30;99.90
55121;DHT22;41019;48.512;9.036;2024-01-06T00:48:21;6.30;99.90
55121;DHT22;41019;48.512;9.036;2024-01-06T00:50:47;6.40;99.90
55121;DHT22;41019;48.512;9.036;2024-01-06T00:53:13;6.30;99.90
55121;DHT22;41019;48.512;9.036;2024-01-06T00:55:39;6.30;99.90
55121;DHT22;41019;48.512;9.036;2024-01-06T00:58:05;6.30;99.90
55121;DHT22;41019;48.512;9.036;2024-01-06T01:00:31;6.30;99.90
55121;DHT22;41019;48.512;9.036;2024-01-06T01:02:57;6.30;99.90
55121;DHT22;41019;48.512;9.036;2024-01-06T01:05:23;6.40;99.90
55121;DHT22;41019;48.512;9.036;2024-01-06T01:07:48;6.30;99.90
55121;DHT22;41019;48.512;9.036;2024-01-06T01:10:14;6.20;99.90
55121;DHT22;41019;48.512;9.036;2024-01-06T01:12:40;6.20;99.90
55121;DHT22;41019;48.512;9.036;2024-01-06T01:15:06;6.20;99.90
55121;DHT22;41019;48.512;9.036;2024-01-06T01:17:32;6.20;99.90
55121;DHT22;41019;48.512;9.036;2024-01-06T01:19:58;6.20;99.90
55121;DHT22;41019;48.512;9.036;2024-01-06T01:22:24;6.20;99.90
55121;DHT22;41019;48.512;9.036;2024-01-06T01:24:50;6.20;99.90
55121;DHT22;41019;48.512;9.036;2024-01-06T01:27:15;6.20;99.90
55121;DHT22;41019;48.512;9.036;2024-01-06T01:29:41;6.20;99.90
55121;DHT22;41019;48.512;9.036;2024-01-06T01:32:07;6.20;99.90
55121;DHT22;41019;48.512;9.036;2024-01-06T01:34:33;6.10;99.90
55121;DHT22;41019;48.512;9.036;2024-01-06T01:37:00;6.20;99.90
55121;DHT22;41019;48.512;9.036;2024-01-06T01:39:26;6.10;99.90
55121;DHT22;41019;48.512;9.036;2024-01-06T01:41:51;6.10;99.90
55121;DHT22;41019;48.512;9.036;2024-01-06T01:44:17;6.10;99.90
55121;DHT22;41019;48.512;9.036;2024-01-06T01:46:44;6.10;99.90
55121;DHT22;41019;48.512;9.036;2024-01-06T01:49:10;6.10;99.90
55121;DHT22;41019;48.512;9.036;2024-01-06T01:51:36;6.10;99.90
55121;DHT22;41019;48.512;9.036;2024-01-06T01:54:04;6.10;99.90
55121;DHT22;41019;48.512;9.036;2024-01-06T01:56:32;6.10;99.90
55121;DHT22;41019;48.512;9.036;2024-01-06T01:59:10;6.10;99.90
55121;DHT22;41019;48.512;9.036;2024-01-06T02:01:39;6.10;99.90
55121;DHT22;41019;48.512;9.036;2024-01-06T02:04:05;6.00;99.90
55121;DHT22;41019;48.512;9.036;2024-01-06T02:06:31;6.00;99.90
55121;DHT22;41019;48.512;9.036;2024-01-06T02:08:57;6.00;99.90
55121;DHT22;41019;48.512;9.036;2024-01-06T02:11:23;6.00;99.90
55121;DHT22;41019;48.512;9.036;2024-01-06T02:13:50;6.00;99.90
55121;DHT22;41019;48.512;9.036;2024-01-06T02:16:16;6.10;99.90
55121;DHT22;41019;48.512;9.036;2024-01-06T02:18:42;6.10;99.90
55121;DHT22;41019;48.512;9.036;2024-01-06T02:21:08;6.10;99.90
55121;DHT22;41019;48.512;9.036;2024-01-06T02:23:36;6.10;99.90
55121;DHT22;41019;48.512;9.036;2024-01-06T02:26:03;6.00;99.90
55121;DHT22;41019;48.512;9.036;2024-01-06T02:28:29;6.10;99.90
55121;DHT22;41019;48.512;9.036;2024-01-06T02:30:54;6.10;99.90
55121;DHT22;41019;48.512;9.036;2024-01-06T02:33:20;6.10;99.90
55121;DHT22;41019;48.512;9.036;2024-01-06T02:35:46;6.10;99.90
55121;DHT22;41019;48.512;9.036;2024-01-06T02:38:12;6.10;99.90
55121;DHT22;41019;48.512;9.036;2024-01-06T02:40:38;6.10;99.90
55121;DHT22;41019;48.512;9.036;2024-01-06T02:43:05;6.10;99.90
55121;DHT22;41019;48.512;9.036;2024-01-06T02:45:30;6.10;99.90
55121;DHT22;41019;48.512;9.036;2024-01-06T02:47:56;6.10;99.90
55121;DHT22;41019;48.512;9.036;2024-01-06T02:50:22;6.10;99.90
55121;DHT22;41019;48.512;9.036;2024-01-06T02:52:47;6.10;99.90
55121;DHT22;41019;48.512;9.036;2024-01-06T02:55:14;6.10;99.90
55121;DHT22;41019;48.512;9.036;2024-01-06T02:57:40;6.10;99.90
55121;DHT22;41019;48.512;9.036;2024-01-06T03:00:07;6.10;99.90
55121;DHT22;41019;48.512;9.036;2024-01-06T03:02:33;6.10;99.90
55121;DHT22;41019;48.512;9.036;2024-01-06T03:05:01;6.10;99.90
55121;DHT22;41019;48.512;9.036;2024-01-06T03:07:28;6.10;99.90
55121;DHT22;41019;48.512;9.036;2024-01-06T03:09:53;6.10;99.90
55121;DHT22;41019;48.512;9.036;2024-01-06T03:12:19;6.10;99.90
55121;DHT22;41019;48.512;9.036;2024-01-06T03:14:45;6.10;99.90
55121;DHT22;41019;48.512;9.036;2024-01-06T03:17:11;6.10;99.90
55121;DHT22;41019;48.512;9.036;2024-01-06T03:19:38;6.10;99.90
55121;DHT22;41019;48.512;9.036;2024-01-06T03:22:04;6.10;99.90
55121;DHT22;41019;48.512;9.036;2024-01-06T03:24:30;6.10;99.90
55121;DHT22;41019;48.512;9.036;2024-01-06T03:26:57;6.10;99.90
55121;DHT22;41019;48.512;9.036;2024-01-06T03:29:22;6.10;99.90
55121;DHT22;41019;48.512;9.036;2024-01-06T03:31:49;6.10;99.90
55121;DHT22;41019;48.512;9.036;2024-01-06T03:34:14;6.10;99.90
55121;DHT22;41019;48.512;9.036;2024-01-06T03:36:41;6.10;99.90
55121;DHT22;41019;48.512;9.036;2024-01-06T03:39:08;6.10;99.90
55121;DHT22;41019;48.512;9.036;2024-01-06T03:41:35;6.10;99.90
55121;DHT22;41019;48.512;9.036;2024-01-06T03:44:01;6.10;99.90
55121;DHT22;41019;48.512;9.036;2024-01-06T03:46:27;6.20;99.90
55121;DHT22;41019;48.512;9.036;2024-01-06T03:48:53;6.00;99.90
55121;DHT22;41019;48.512;9.036;2024-01-06T03:51:19;6.00;99.90
55121;DHT22;41019;48.512;9.036;2024-01-06T03:53:45;6.00;99.90
55121;DHT22;41019;48.512;9.036;2024-01-06T03:56:13;6.00;99.90
55121;DHT22;41019;48.512;9.036;2024-01-06T03:58:39;6.00;99.90
55121;DHT22;41019;48.512;9.036;2024-01-06T04:01:05;5.90;99.90
55121;DHT22;41019;48.512;9.036;2024-01-06T04:03:31;5.90;99.90
55121;DHT22;41019;48.512;9.036;2024-01-06T04:05:57;5.90;99.90
55121;DHT22;41019;48.512;9.036;2024-01-06T04:08:22;5.90;99.90
55121;DHT22;41019;48.512;9.036;2024-01-06T04:10:48;5.90;99.90
55121;DHT22;41019;48.512;9.036;2024-01-06T04:13:15;5.90;99.90
55121;DHT22;41019;48.512;9.036;2024-01-06T04:15:42;5.90;99.90
55121;DHT22;41019;48.512;9.036;2024-01-06T04:18:07;5.90;99.90
55121;DHT22;41019;48.512;9.036;2024-01-06T04:20:35;5.80;99.90
55121;DHT22;41019;48.512;9.036;2024-01-06T04:23:01;5.80;99.90
55121;DHT22;41019;48.512;9.036;2024-01-06T04:25:27;5.80;99.90
55121;DHT22;41019;48.512;9.036;2024-01-06T04:27:53;5.80;99.90
55121;DHT22;41019;48.512;9.036;2024-01-06T04:30:19;5.80;99.90
55121;DHT22;41019;48.512;9.036;2024-01-06T04:32:46;5.80;99.90
55121;DHT22;41019;48.512;9.036;2024-01-06T04:35:14;5.80;99.90
55121;DHT22;41019;48.512;9.036;2024-01-06T04:37:40;5.70;99.90
55121;DHT22;41019;48.512;9.036;2024-01-06T04:40:07;5.70;99.90
55121;DHT22;41019;48.512;9.036;2024-01-06T04:42:33;5.70;99.90
55121;DHT22;41019;48.512;9.036;2024-01-06T04:44:59;5.70;99.90
55121;DHT22;41019;48.512;9.036;2024-01-06T04:47:25;5.70;99.90
55121;DHT22;41019;48.512;9.036;2024-01-06T04:49:52;5.70;99.90
55121;DHT22;41019;48.512;9.036;2024-01-06T04:52:18;5.70;99.90
55121;DHT22;41019;48.512;9.036;2024-01-06T04:54:44;5.60;99.90
55121;DHT22;41019;48.512;9.036;2024-01-06T04:57:10;5.60;99.90
55121;DHT22;41019;48.512;9.036;2024-01-06T04:59:36;5.60;99.90
55121;DHT22;41019;48.512;9.036;2024-01-06T05:02:02;5.60;99.90
55121;DHT22;41019;48.512;9.036;2024-01-06T05:04:28;5.60;99.90
55121;DHT22;41019;48.512;9.036;2024-01-06T05:06:56;5.60;99.90
55121;DHT22;41019;48.512;9.036;2024-01-06T05:09:22;5.60;99.90
55121;DHT22;41019;48.512;9.036;2024-01-06T05:11:48;5.60;99.90
55121;DHT22;41019;48.512;9.036;2024-01-06T05:14:14;5.60;99.90
55121;DHT22;41019;48.512;9.036;2024-01-06T05:16:40;5.60;99.90
55121;DHT22;41019;48.512;9.036;2024-01-06T05:19:05;5.60;99.90
55121;DHT22;41019;48.512;9.036;2024-01-06T05:21:32;5.70;99.90
55121;DHT22;41019;48.512;9.036;2024-01-06T05:23:58;5.70;99.90
55121;DHT22;41019;48.512;9.036;2024-01-06T05:26:25;5.70;99.90
55121;DHT22;41019;48.512;9.036;2024-01-06T05:28:51;5.70;99.90
55121;DHT22;41019;48.512;9.036;2024-01-06T05:31:17;5.70;99.90
55121;DHT22;41019;48.512;9.036;2024-01-06T05:33:42;5.70;99.90
55121;DHT22;41019;48.512;9.036;2024-01-06T05:36:09;5.60;99.90
55121;DHT22;41019;48.512;9.036;2024-01-06T05:38:35;5.70;99.90
55121;DHT22;41019;48.512;9.036;2024-01-06T05:41:01;5.60;99.90
55121;DHT22;41019;48.512;9.036;2024-01-06T05:43:27;5.60;99.90
55121;DHT22;41019;48.512;9.036;2024-01-06T05:45:53;5.60;99.90
55121;DHT22;41019;48.512;9.036;2024-01-06T05:48:19;5.60;99.90
55121;DHT22;41019;48.512;9.036;2024-01-06T05:50:45;5.60;99.90
55121;DHT22;41019;48.512;9.036;2024-01-06T05:53:11;5.60;99.90
55121;DHT22;41019;48.512;9.036;2024-01-06T05:55:40;5.60;99.90
55121;DHT22;41019;48.512;9.036;2024-01-06T05:58:06;5.60;99.90
55121;DHT22;41019;48.512;9.036;2024-01-06T06:00:31;5.60;99.90
55121;DHT22;41019;48.512;9.036;2024-01-06T06:02:58;5.60;99.90
55121;DHT22;41019;48.512;9.036;2024-01-06T06:05:24;5.60;99.90
55121;DHT22;41019;48.512;9.036;2024-01-06T06:07:50;5.60;99.90
55121;DHT22;41019;48.512;9.036;2024-01-06T06:10:15;5.60;99.90
55121;DHT22;41019;48.512;9.036;2024-01-06T06:12:41;5.60;99.90
55121;DHT22;41019;48.512;9.036;2024-01-06T06:15:07;5.60;99.90
55121;DHT22;41019;48.512;9.036;2024-01-06T06:17:35;5.60;99.90
55121;DHT22;41019;48.512;9.036;2024-01-06T06:20:01;5.60;99.90
55121;DHT22;41019;48.512;9.036;2024-01-06T06:22:27;5.60;99.90
55121;DHT22;41019;48.512;9.036;2024-01-06T06:24:56;5.60;99.90
55121;DHT22;41019;48.512;9.036;2024-01-06T06:27:23;5.60;99.90
55121;DHT22;41019;48.512;9.036;2024-01-06T06:29:49;5.60;99.90
55121;DHT22;41019;48.512;9.036;2024-01-06T06:32:15;5.60;99.90
55121;DHT22;41019;48.512;9.036;2024-01-06T06:34:42;5.60;99.90
55121;DHT22;41019;48.512;9.036;2024-01-06T06:37:08;5.60;99.90
55121;DHT22;41019;48.512;9.036;2024-01-06T06:39:35;5.60;99.90
55121;DHT22;41019;48.512;9.036;2024-01-06T06:42:02;5.50;99.90
55121;DHT22;41019;48.512;9.036;2024-01-06T06:44:28;5.60;99.90
55121;DHT22;41019;48.512;9.036;2024-01-06T06:46:55;5.60;99.90
55121;DHT22;41019;48.512;9.036;2024-01-06T06:49:21;5.60;99.90
55121;DHT22;41019;48.512;9.036;2024-01-06T06:51:47;5.60;99.90
55121;DHT22;41019;48.512;9.036;2024-01-06T06:54:14;5.60;99.90
55121;DHT22;41019;48.512;9.036;2024-01-06T06:56:43;5.50;99.90
55121;DHT22;41019;48.512;9.036;2024-01-06T06:59:09;5.50;99.90
55121;DHT22;41019;48.512;9.036;2024-01-06T07:01:35;5.60;99.90
55121;DHT22;41019;48.512;9.036;2024-01-06T07:04:02;5.60;99.90
55121;DHT22;41019;48.512;9.036;2024-01-06T07:06:28;5.60;99.90
55121;DHT22;41019;48.512;9.036;2024-01-06T07:08:55;5.60;99.90
55121;DHT22;41019;48.512;9.036;2024-01-06T07:11:21;5.60;99.90
55121;DHT22;41019;48.512;9.036;2024-01-06T07:13:47;5.80;99.90
55121;DHT22;41019;48.512;9.036;2024-01-06T07:16:13;5.60;99.90
55121;DHT22;41019;48.512;9.036;2024-01-06T07:18:39;5.60;99.90
55121;DHT22;41019;48.512;9.036;2024-01-06T07:21:05;5.60;99.90
55121;DHT22;41019;48.512;9.036;2024-01-06T07:23:35;5.60;99.90
55121;DHT22;41019;48.512;9.036;2024-01-06T07:26:01;5.60;99.90
55121;DHT22;41019;48.512;9.036;2024-01-06T07:28:27;5.60;99.90
55121;DHT22;41019;48.512;9.036;2024-01-06T07:30:53;5.60;99.90
55121;DHT22;41019;48.512;9.036;2024-01-06T07:33:19;5.60;99.90
55121;DHT22;41019;48.512;9.036;2024-01-06T07:35:44;6.00;99.90
55121;DHT22;41019;48.512;9.036;2024-01-06T07:38:12;5.60;99.90
55121;DHT22;41019;48.512;9.036;2024-01-06T07:40:39;5.60;99.90
55121;DHT22;41019;48.512;9.036;2024-01-06T07:43:05;5.60;99.90
55121;DHT22;41019;48.512;9.036;2024-01-06T07:45:33;5.60;99.90
55121;DHT22;41019;48.512;9.036;2024-01-06T07:47:59;5.60;99.90
55121;DHT22;41019;48.512;9.036;2024-01-06T07:50:28;5.60;99.90
55121;DHT22;41019;48.512;9.036;2024-01-06T07:52:54;5.60;99.90
55121;DHT22;41019;48.512;9.036;2024-01-06T07:55:20;5.60;99.90
55121;DHT22;41019;48.512;9.036;2024-01-06T07:57:46;5.60;99.90
55121;DHT22;41019;48.512;9.036;2024-01-06T08:00:12;5.60;99.90
55121;DHT22;41019;48.512;9.036;2024-01-06T08:02:40;5.60;99.90
55121;DHT22;41019;48.512;9.036;2024-01-06T08:05:07;5.70;99.90
55121;DHT22;41019;48.512;9.036;2024-01-06T08:07:33;5.70;99.90
55121;DHT22;41019;48.512;9.036;2024-01-06T08:09:59;5.70;99.90
55121;DHT22;41019;48.512;9.036;2024-01-06T08:12:25;5.70;99.90
55121;DHT22;41019;48.512;9.036;2024-01-06T08:14:51;5.70;99.90
55121;DHT22;41019;48.512;9.036;2024-01-06T08:17:17;5.80;99.90
55121;DHT22;41019;48.512;9.036;2024-01-06T08:19:42;5.80;99.90
55121;DHT22;41019;48.512;9.036;2024-01-06T08:22:09;5.90;99.90
55121;DHT22;41019;48.512;9.036;2024-01-06T08:24:34;5.90;99.90
55121;DHT22;41019;48.512;9.036;2024-01-06T08:27:00;5.90;99.90
55121;DHT22;41019;48.512;9.036;2024-01-06T08:29:26;6.00;99.90
55121;DHT22;41019;48.512;9.036;2024-01-06T08:31:51;6.00;99.90
55121;DHT22;41019;48.512;9.036;2024-01-06T08:34:20;6.00;99.90
55121;DHT22;41019;48.512;9.036;2024-01-06T08:36:46;6.10;99.90
55121;DHT22;41019;48.512;9.036;2024-01-06T08:39:12;6.10;99.90
55121;DHT22;41019;48.512;9.036;2024-01-06T08:41:38;6.10;99.90
55121;DHT22;41019;48.512;9.036;2024-01-06T08:44:04;6.10;99.90
55121;DHT22;41019;48.512;9.036;2024-01-06T08:46:32;6.10;99.90
55121;DHT22;41019;48.512;9.036;2024-01-06T08:48:58;6.20;99.90
55121;DHT22;41019;48.512;9.036;2024-01-06T08:51:24;6.20;99.90
55121;DHT22;41019;48.512;9.036;2024-01-06T08:53:51;6.20;99.90
55121;DHT22;41019;48.512;9.036;2024-01-06T08:56:17;6.20;99.90
55121;DHT22;41019;48.512;9.036;2024-01-06T08:58:43;6.30;99.90
55121;DHT22;41019;48.512;9.036;2024-01-06T09:01:09;6.30;99.90
55121;DHT22;41019;48.512;9.036;2024-01-06T09:03:35;6.40;99.90
55121;DHT22;41019;48.512;9.036;2024-01-06T09:06:01;6.40;99.90
55121;DHT22;41019;48.512;9.036;2024-01-06T09:08:27;6.40;99.90
55121;DHT22;41019;48.512;9.036;2024-01-06T09:10:53;6.50;99.90
55121;DHT22;41019;48.512;9.036;2024-01-06T09:13:23;6.50;99.90
55121;DHT22;41019;48.512;9.036;2024-01-06T09:15:52;6.60;99.90
55121;DHT22;41019;48.512;9.036;2024-01-06T09:18:18;6.70;99.90
55121;DHT22;41019;48.512;9.036;2024-01-06T09:20:44;6.70;99.90
55121;DHT22;41019;48.512;9.036;2024-01-06T09:23:13;6.70;99.90
55121;DHT22;41019;48.512;9.036;2024-01-06T09:25:39;6.80;99.90
55121;DHT22;41019;48.512;9.036;2024-01-06T09:28:07;6.90;99.90
55121;DHT22;41019;48.512;9.036;2024-01-06T09:30:33;6.90;99.90
55121;DHT22;41019;48.512;9.036;2024-01-06T09:32:59;7.00;99.90
55121;DHT22;41019;48.512;9.036;2024-01-06T09:35:25;7.00;99.90
55121;DHT22;41019;48.512;9.036;2024-01-06T09:37:51;7.10;99.90
55121;DHT22;41019;48.512;9.036;2024-01-06T09:40:22;7.00;99.90
55121;DHT22;41019;48.512;9.036;2024-01-06T09:42:52;7.10;99.90
55121;DHT22;41019;48.512;9.036;2024-01-06T09:45:21;7.20;99.70
55121;DHT22;41019;48.512;9.036;2024-01-06T09:47:51;7.20;99.80
55121;DHT22;41019;48.512;9.036;2024-01-06T09:50:21;7.20;99.70
55121;DHT22;41019;48.512;9.036;2024-01-06T09:52:48;7.30;99.60
55121;DHT22;41019;48.512;9.036;2024-01-06T09:55:24;7.30;99.60
55121;DHT22;41019;48.512;9.036;2024-01-06T09:57:54;7.40;98.80
55121;DHT22;41019;48.512;9.036;2024-01-06T10:00:20;7.40;99.10
55121;DHT22;41019;48.512;9.036;2024-01-06T10:02:50;7.40;99.10
55121;DHT22;41019;48.512;9.036;2024-01-06T10:05:20;7.50;99.00
55121;DHT22;41019;48.512;9.036;2024-01-06T10:07:47;7.50;98.80
55121;DHT22;41019;48.512;9.036;2024-01-06T10:10:13;7.50;98.90
55121;DHT22;41019;48.512;9.036;2024-01-06T10:12:43;7.50;98.60
55121;DHT22;41019;48.512;9.036;2024-01-06T10:15:11;7.50;98.60
55121;DHT22;41019;48.512;9.036;2024-01-06T10:17:41;7.50;98.50
55121;DHT22;41019;48.512;9.036;2024-01-06T10:20:12;7.50;98.00
55121;DHT22;41019;48.512;9.036;2024-01-06T10:22:40;7.60;98.20
55121;DHT22;41019;48.512;9.036;2024-01-06T10:25:10;7.50;97.90
55121;DHT22;41019;48.512;9.036;2024-01-06T10:27:38;7.60;98.10
55121;DHT22;41019;48.512;9.036;2024-01-06T10:30:06;7.60;98.00
55121;DHT22;41019;48.512;9.036;2024-01-06T10:32:36;7.70;98.00
55121;DHT22;41019;48.512;9.036;2024-01-06T10:35:03;8.00;97.90
55121;DHT22;41019;48.512;9.036;2024-01-06T10:37:30;7.70;97.00
55121;DHT22;41019;48.512;9.036;2024-01-06T10:40:25;7.70;96.90
55121;DHT22;41019;48.512;9.036;2024-01-06T10:42:51;7.70;96.70
55121;DHT22;41019;48.512;9.036;2024-01-06T10:45:18;7.80;96.60
55121;DHT22;41019;48.512;9.036;2024-01-06T10:47:45;7.80;96.30
55121;DHT22;41019;48.512;9.036;2024-01-06T10:50:14;7.80;96.40
55121;DHT22;41019;48.512;9.036;2024-01-06T10:52:43;7.90;96.40
55121;DHT22;41019;48.512;9.036;2024-01-06T10:55:10;7.80;96.70
55121;DHT22;41019;48.512;9.036;2024-01-06T10:57:38;7.90;96.10
55121;DHT22;41019;48.512;9.036;2024-01-06T11:00:04;7.80;95.50
55121;DHT22;41019;48.512;9.036;2024-01-06T11:02:31;7.80;96.10
55121;DHT22;41019;48.512;9.036;2024-01-06T11:04:58;7.80;96.00
55121;DHT22;41019;48.512;9.036;2024-01-06T11:07:25;7.70;96.00
55121;DHT22;41019;48.512;9.036;2024-01-06T11:12:34;7.80;95.60
55121;DHT22;41019;48.512;9.036;2024-01-06T11:14:59;7.80;95.30
55121;DHT22;41019;48.512;9.036;2024-01-06T11:17:51;7.80;95.30
55121;DHT22;41019;48.512;9.036;2024-01-06T11:20:25;7.90;95.70
55121;DHT22;41019;48.512;9.036;2024-01-06T11:22:52;7.90;95.70
55121;DHT22;41019;48.512;9.036;2024-01-06T11:25:20;8.00;96.10
55121;DHT22;41019;48.512;9.036;2024-01-06T11:27:50;8.00;95.30
55121;DHT22;41019;48.512;9.036;2024-01-06T11:30:24;8.10;95.10
55121;DHT22;41019;48.512;9.036;2024-01-06T11:32:52;8.10;95.50
55121;DHT22;41019;48.512;9.036;2024-01-06T11:35:20;8.10;95.40
55121;DHT22;41019;48.512;9.036;2024-01-06T11:42:48;8.20;94.60
55121;DHT22;41019;48.512;9.036;2024-01-06T11:45:14;8.30;94.10
55121;DHT22;41019;48.512;9.036;2024-01-06T11:47:48;8.40;94.00
55121;DHT22;41019;48.512;9.036;2024-01-06T11:50:14;8.40;94.60
55121;DHT22;41019;48.512;9.036;2024-01-06T11:52:41;8.40;93.90
55121;DHT22;41019;48.512;9.036;2024-01-06T11:55:08;8.50;93.90
55121;DHT22;41019;48.512;9.036;2024-01-06T11:57:35;8.50;93.70
55121;DHT22;41019;48.512;9.036;2024-01-06T12:00:01;8.50;93.90
55121;DHT22;41019;48.512;9.036;2024-01-06T12:02:26;8.50;93.90
55121;DHT22;41019;48.512;9.036;2024-01-06T12:04:53;8.50;93.90
55121;DHT22;41019;48.512;9.036;2024-01-06T12:07:21;8.60;94.10
55121;DHT22;41019;48.512;9.036;2024-01-06T12:09:50;8.60;93.80
55121;DHT22;41019;48.512;9.036;2024-01-06T12:12:17;8.60;94.30
55121;DHT22;41019;48.512;9.036;2024-01-06T12:14:43;8.60;93.90
55121;DHT22;41019;48.512;9.036;2024-01-06T12:17:10;8.60;94.10
55121;DHT22;41019;48.512;9.036;2024-01-06T12:19:36;8.60;93.60
55121;DHT22;41019;48.512;9.036;2024-01-06T12:22:02;8.60;93.70
55121;DHT22;41019;48.512;9.036;2024-01-06T12:24:28;8.60;93.90
55121;DHT22;41019;48.512;9.036;2024-01-06T12:26:59;8.60;93.80
55121;DHT22;41019;48.512;9.036;2024-01-06T12:29:28;8.60;93.70
55121;DHT22;41019;48.512;9.036;2024-01-06T12:31:55;8.60;93.70
55121;DHT22;41019;48.512;9.036;2024-01-06T12:34:22;8.60;93.70
55121;DHT22;41019;48.512;9.036;2024-01-06T12:36:53;8.50;93.40
55121;DHT22;41019;48.512;9.036;2024-01-06T12:39:21;8.50;93.20
55121;DHT22;41019;48.512;9.036;2024-01-06T12:41:46;8.50;93.70
55121;DHT22;41019;48.512;9.036;2024-01-06T12:44:13;8.60;93.90
55121;DHT22;41019;48.512;9.036;2024-01-06T12:46:39;8.70;93.40
55121;DHT22;41019;48.512;9.036;2024-01-06T12:49:04;8.60;93.80
55121;DHT22;41019;48.512;9.036;2024-01-06T12:51:30;8.70;93.60
55121;DHT22;41019;48.512;9.036;2024-01-06T12:53:56;8.70;93.40
55121;DHT22;41019;48.512;9.036;2024-01-06T12:56:22;8.70;93.30
55121;DHT22;41019;48.512;9.036;2024-01-06T12:58:48;8.70;93.40
55121;DHT22;41019;48.512;9.036;2024-01-06T13:01:14;8.60;93.10
55121;DHT22;41019;48.512;9.036;2024-01-06T13:03:39;8.70;93.50
55121;DHT22;41019;48.512;9.036;2024-01-06T13:06:05;8.70;93.60
55121;DHT22;41019;48.512;9.036;2024-01-06T13:08:32;8.70;94.20
55121;DHT22;41019;48.512;9.036;2024-01-06T13:10:58;8.70;93.60
55121;DHT22;41019;48.512;9.036;2024-01-06T13:13:24;8.70;93.60
55121;DHT22;41019;48.512;9.036;2024-01-06T13:15:49;8.70;93.60
55121;DHT22;41019;48.512;9.036;2024-01-06T13:18:16;8.70;93.50
55121;DHT22;41019;48.512;9.036;2024-01-06T13:20:44;8.70;93.30
55121;DHT22;41019;48.512;9.036;2024-01-06T13:23:10;8.60;93.70
55121;DHT22;41019;48.512;9.036;2024-01-06T13:25:39;8.60;93.70
55121;DHT22;41019;48.512;9.036;2024-01-06T13:28:07;8.60;94.00
55121;DHT22;41019;48.512;9.036;2024-01-06T13:30:33;8.60;93.60
55121;DHT22;41019;48.512;9.036;2024-01-06T13:32:59;8.60;93.20
55121;DHT22;41019;48.512;9.036;2024-01-06T13:35:25;8.60;93.60
55121;DHT22;41019;48.512;9.036;2024-01-06T13:37:52;8.50;93.60
55121;DHT22;41019;48.512;9.036;2024-01-06T13:40:19;8.60;93.40
55121;DHT22;41019;48.512;9.036;2024-01-06T13:42:51;8.50;93.40
55121;DHT22;41019;48.512;9.036;2024-01-06T13:45:18;8.50;93.80
55121;DHT22;41019;48.512;9.036;2024-01-06T13:47:44;8.50;93.70
55121;DHT22;41019;48.512;9.036;2024-01-06T13:50:12;8.50;93.80
55121;DHT22;41019;48.512;9.036;2024-01-06T13:52:39;8.40;94.20
55121;DHT22;41019;48.512;9.036;2024-01-06T13:55:05;8.30;94.00
55121;DHT22;41019;48.512;9.036;2024-01-06T13:57:32;8.30;93.90
55121;DHT22;41019;48.512;9.036;2024-01-06T13:59:58;8.20;94.00
55121;DHT22;41019;48.512;9.036;2024-01-06T14:02:24;8.20;94.20
55121;DHT22;41019;48.512;9.036;2024-01-06T14:04:51;8.20;94.60
55121;DHT22;41019;48.512;9.036;2024-01-06T14:07:17;8.20;94.80
55121;DHT22;41019;48.512;9.036;2024-01-06T14:09:49;8.10;94.20
55121;DHT22;41019;48.512;9.036;2024-01-06T14:12:15;8.20;93.90
55121;DHT22;41019;48.512;9.036;2024-01-06T14:14:44;8.10;94.10
55121;DHT22;41019;48.512;9.036;2024-01-06T14:17:11;8.10;94.30
55121;DHT22;41019;48.512;9.036;2024-01-06T14:19:37;8.10;94.60
55121;DHT22;41019;48.512;9.036;2024-01-06T14:22:03;8.00;94.50
55121;DHT22;41019;48.512;9.036;2024-01-06T14:24:30;8.00;94.60
55121;DHT22;41019;48.512;9.036;2024-01-06T14:26:57;8.00;94.80
55121;DHT22;41019;48.512;9.036;2024-01-06T14:29:23;8.00;94.90
55121;DHT22;41019;48.512;9.036;2024-01-06T14:31:49;8.00;94.80
55121;DHT22;41019;48.512;9.036;2024-01-06T14:34:15;8.00;94.50
55121;DHT22;41019;48.512;9.036;2024-01-06T14:36:41;8.00;94.80
55121;DHT22;41019;48.512;9.036;2024-01-06T14:39:17;7.90;95.20
55121;DHT22;41019;48.512;9.036;2024-01-06T14:41:44;7.90;95.10
55121;DHT22;41019;48.512;9.036;2024-01-06T14:44:10;7.90;95.20
55121;DHT22;41019;48.512;9.036;2024-01-06T14:46:37;7.90;95.10
55121;DHT22;41019;48.512;9.036;2024-01-06T14:49:03;7.90;95.30
55121;DHT22;41019;48.512;9.036;2024-01-06T14:51:29;7.90;95.30
55121;DHT22;41019;48.512;9.036;2024-01-06T14:53:55;7.80;95.60
55121;DHT22;41019;48.512;9.036;2024-01-06T14:56:24;7.80;95.70
55121;DHT22;41019;48.512;9.036;2024-01-06T14:58:53;7.80;95.80
55121;DHT22;41019;48.512;9.036;2024-01-06T15:01:20;7.80;96.00
55121;DHT22;41019;48.512;9.036;2024-01-06T15:03:46;7.80;95.90
55121;DHT22;41019;48.512;9.036;2024-01-06T15:06:12;7.80;95.80
55121;DHT22;41019;48.512;9.036;2024-01-06T15:08:38;7.70;95.90
55121;DHT22;41019;48.512;9.036;2024-01-06T15:11:04;7.70;95.90
55121;DHT22;41019;48.512;9.036;2024-01-06T15:13:32;7.70;95.80
55121;DHT22;41019;48.512;9.036;2024-01-06T15:15:57;7.70;95.80
55121;DHT22;41019;48.512;9.036;2024-01-06T15:18:23;7.70;95.90
55121;DHT22;41019;48.512;9.036;2024-01-06T15:20:50;7.70;96.30
55121;DHT22;41019;48.512;9.036;2024-01-06T15:23:16;7.60;96.40
55121;DHT22;41019;48.512;9.036;2024-01-06T15:25:44;7.60;96.40
55121;DHT22;41019;48.512;9.036;2024-01-06T15:28:10;7.60;96.10
55121;DHT22;41019;48.512;9.036;2024-01-06T15:30:35;7.60;96.10
55121;DHT22;41019;48.512;9.036;2024-01-06T15:33:01;7.60;96.00
55121;DHT22;41019;48.512;9.036;2024-01-06T15:35:27;7.60;96.00
55121;DHT22;41019;48.512;9.036;2024-01-06T15:37:53;7.60;96.00
55121;DHT22;41019;48.512;9.036;2024-01-06T15:40:19;7.60;96.00
55121;DHT22;41019;48.512;9.036;2024-01-06T15:42:45;7.50;95.80
55121;DHT22;41019;48.512;9.036;2024-01-06T15:45:11;7.50;96.00
55121;DHT22;41019;48.512;9.036;2024-01-06T15:47:37;7.50;96.00
55121;DHT22;41019;48.512;9.036;2024-01-06T15:50:04;7.50;96.20